createdAt,value
2022-08-08T00:00:55.093Z,45.28
2022-08-08T00:02:43.065Z,45.65
2022-08-08T00:05:18.530Z,45.51
2022-08-08T00:07:57.481Z,45.68
2022-08-08T00:10:40.133Z,45.81
2022-08-08T00:14:17.549Z,46.22
2022-08-08T00:16:16.376Z,45.71
2022-08-08T00:18:51.081Z,46.11
2022-08-08T00:21:23.275Z,45.73
2022-08-08T00:23:58.647Z,45.97
2022-08-08T00:26:40.988Z,46.18
2022-08-08T00:29:17.475Z,46.51
2022-08-08T00:32:19.911Z,46.96
2022-08-08T00:35:26.690Z,46.71
2022-08-08T00:38:31.417Z,46.79
2022-08-08T00:41:45.089Z,46.80
2022-08-08T00:44:38.683Z,46.98
2022-08-08T00:48:01.701Z,47.06
2022-08-08T00:51:15.222Z,47.26
2022-08-08T00:54:17.228Z,47.29
2022-08-08T00:57:40.646Z,47.74
2022-08-08T01:00:12.911Z,47.50
2022-08-08T01:04:01.821Z,48.05
2022-08-08T01:06:36.859Z,47.96
2022-08-08T01:09:41.337Z,48.16
2022-08-08T01:12:36.825Z,48.22
2022-08-08T01:15:44.355Z,48.77
2022-08-08T01:18:52.972Z,48.55
2022-08-08T01:22:11.764Z,48.30
2022-08-08T01:24:53.738Z,48.70
2022-08-08T01:27:59.387Z,48.10
2022-08-08T01:32:02.684Z,48.22
2022-08-08T01:34:39.562Z,48.71
2022-08-08T01:38:01.254Z,48.65
2022-08-08T01:40:38.156Z,48.31
2022-08-08T01:43:16.364Z,48.33
2022-08-08T01:45:56.702Z,48.52
2022-08-08T01:48:39.671Z,48.44
2022-08-08T01:52:43.427Z,48.47
2022-08-08T01:55:18.884Z,48.53
2022-08-08T01:58:12.402Z,48.96
2022-08-08T02:00:44.425Z,49.17
2022-08-08T02:03:55.934Z,49.57
2022-08-08T02:06:49.376Z,49.68
2022-08-08T02:10:01.075Z,50.11
2022-08-08T02:12:25.288Z,49.69
2022-08-08T02:15:03.067Z,49.87
2022-08-08T02:17:43.441Z,50.37
2022-08-08T02:21:01.554Z,50.44
2022-08-08T02:23:20.815Z,50.58
2022-08-08T02:26:00.686Z,50.72
2022-08-08T02:28:48.143Z,50.86
2022-08-08T02:31:59.018Z,50.54
2022-08-08T02:35:08.233Z,50.97
2022-08-08T02:37:52.278Z,50.87
2022-08-08T02:40:39.239Z,51.08
2022-08-08T02:44:34.915Z,51.27
2022-08-08T02:46:45.142Z,51.28
2022-08-08T02:49:51.789Z,51.35
2022-08-08T02:52:38.717Z,51.36
2022-08-08T02:55:38.696Z,51.77
2022-08-08T02:58:53.124Z,51.72
2022-08-08T03:02:30.506Z,51.92
2022-08-08T03:05:27.057Z,52.09
2022-08-08T03:08:54.607Z,51.93
2022-08-08T03:12:02.628Z,52.33
2022-08-08T03:16:01.577Z,52.07
2022-08-08T03:18:06.451Z,52.36
2022-08-08T03:20:46.715Z,52.60
2022-08-08T03:23:23.848Z,52.09
2022-08-08T03:25:59.554Z,52.03
2022-08-08T03:28:33.025Z,52.05
2022-08-08T03:31:25.123Z,52.67
2022-08-08T03:34:00.214Z,52.77
2022-08-08T03:36:30.376Z,52.72
2022-08-08T03:39:14.225Z,52.87
2022-08-08T03:42:27.262Z,53.32
2022-08-08T03:44:34.672Z,53.04
2022-08-08T03:47:19.266Z,53.18
2022-08-08T03:49:58.097Z,53.08
2022-08-08T03:52:32.352Z,53.08
2022-08-08T03:55:10.379Z,53.29
2022-08-08T03:58:34.736Z,53.05
2022-08-08T04:01:01.446Z,53.18
2022-08-08T04:03:59.926Z,53.30
2022-08-08T04:06:24.018Z,53.40
2022-08-08T04:08:58.505Z,53.71
2022-08-08T04:11:57.762Z,53.92
2022-08-08T04:14:35.438Z,54.01
2022-08-08T04:17:15.671Z,53.96
2022-08-08T04:19:51.902Z,53.74
2022-08-08T04:22:24.162Z,53.85
2022-08-08T04:24:57.360Z,53.83
2022-08-08T04:28:02.451Z,53.91
2022-08-08T04:30:17.374Z,53.64
2022-08-08T04:32:48.162Z,53.31
2022-08-08T04:35:20.141Z,53.31
2022-08-08T04:37:50.642Z,53.06
2022-08-08T04:40:19.300Z,53.14
2022-08-08T04:42:56.827Z,53.26
2022-08-08T04:45:25.930Z,53.13
2022-08-08T04:47:54.378Z,53.49
2022-08-08T04:50:24.309Z,53.39
2022-08-08T04:52:58.620Z,53.10
2022-08-08T04:55:46.993Z,52.70
2022-08-08T04:58:18.852Z,52.56
2022-08-08T05:00:47.597Z,52.97
2022-08-08T05:03:18.700Z,52.33
2022-08-08T05:06:13.207Z,52.07
2022-08-08T05:08:51.479Z,52.02
2022-08-08T05:11:22.484Z,51.71
2022-08-08T05:14:00.981Z,51.65
2022-08-08T05:16:55.311Z,51.70
2022-08-08T05:20:12.693Z,51.23
2022-08-08T05:22:08.262Z,51.59
2022-08-08T05:24:37.627Z,51.64
2022-08-08T05:27:06.585Z,51.30
2022-08-08T05:29:37.116Z,51.18
2022-08-08T05:32:07.336Z,51.17
2022-08-08T05:34:38.175Z,50.81
2022-08-08T05:37:07.607Z,51.00
2022-08-08T05:39:48.420Z,50.96
2022-08-08T05:42:19.350Z,50.81
2022-08-08T05:44:51.653Z,50.59
2022-08-08T05:47:22.637Z,50.53
2022-08-08T05:49:54.153Z,50.85
2022-08-08T05:52:32.277Z,50.82
2022-08-08T05:55:07.531Z,49.80
2022-08-08T05:58:05.335Z,49.97
2022-08-08T06:00:34.079Z,49.85
2022-08-08T06:03:23.736Z,49.67
2022-08-08T06:05:56.646Z,49.75
2022-08-08T06:08:34.605Z,49.75
2022-08-08T06:11:05.844Z,48.90
2022-08-08T06:13:47.775Z,48.90
2022-08-08T06:16:19.097Z,49.13
2022-08-08T06:18:48.590Z,49.29
2022-08-08T06:21:33.255Z,48.43
2022-08-08T06:24:22.783Z,48.51
2022-08-08T06:27:02.730Z,47.89
2022-08-08T06:30:00.469Z,48.03
2022-08-08T06:32:30.699Z,48.15
2022-08-08T06:36:00.587Z,47.63
2022-08-08T06:37:56.064Z,47.63
2022-08-08T06:40:27.323Z,47.17
2022-08-08T06:42:56.627Z,47.28
2022-08-08T06:45:25.055Z,46.90
2022-08-08T06:48:01.359Z,46.73
2022-08-08T06:50:33.407Z,45.95
2022-08-08T06:53:14.117Z,45.92
2022-08-08T06:56:00.768Z,45.89
2022-08-08T06:58:32.919Z,45.86
2022-08-08T07:01:24.357Z,45.57
2022-08-08T07:04:39.557Z,45.29
2022-08-08T07:06:51.542Z,44.81
2022-08-08T07:09:21.842Z,44.43
2022-08-08T07:11:59.481Z,44.21
2022-08-08T07:14:36.711Z,43.90
2022-08-08T07:17:09.395Z,43.01
2022-08-08T07:19:59.901Z,43.45
2022-08-08T07:22:36.459Z,44.35
2022-08-08T07:25:06.982Z,43.93
2022-08-08T07:28:00.601Z,43.97
2022-08-08T07:30:26.542Z,42.63
2022-08-08T07:32:59.634Z,42.70
2022-08-08T07:35:31.393Z,42.69
2022-08-08T07:38:10.345Z,42.26
2022-08-08T07:40:48.349Z,42.76
2022-08-08T07:43:35.190Z,42.60
2022-08-08T07:46:23.673Z,43.16
2022-08-08T07:48:52.144Z,41.96
2022-08-08T07:51:23.732Z,42.13
2022-08-08T07:54:26.877Z,41.75
2022-08-08T07:57:04.172Z,41.91
2022-08-08T07:59:48.781Z,42.01
2022-08-08T08:02:36.762Z,41.83
2022-08-08T08:05:14.972Z,40.76
2022-08-08T08:07:53.321Z,41.22
2022-08-08T08:10:30.184Z,40.31
2022-08-08T08:13:25.825Z,40.30
2022-08-08T08:16:16.916Z,39.55
2022-08-08T08:18:52.211Z,39.28
2022-08-08T08:21:44.140Z,38.94
2022-08-08T08:24:18.643Z,39.09
2022-08-08T08:26:52.790Z,39.25
2022-08-08T08:29:23.073Z,38.37
2022-08-08T08:31:57.352Z,38.92
2022-08-08T08:34:32.135Z,38.42
2022-08-08T08:37:07.536Z,38.63
2022-08-08T08:39:59.323Z,38.33
2022-08-08T08:42:29.114Z,38.24
2022-08-08T08:45:10.430Z,38.66
2022-08-08T08:47:53.161Z,38.74
2022-08-08T08:50:33.744Z,38.69
2022-08-08T08:53:27.854Z,37.97
2022-08-08T08:56:01.425Z,37.94
2022-08-08T08:58:33.272Z,37.86
2022-08-08T09:01:08.642Z,38.28
2022-08-08T09:03:47.614Z,37.91
2022-08-08T09:06:28.410Z,38.26
2022-08-08T09:09:03.247Z,37.91
2022-08-08T09:11:35.262Z,37.48
2022-08-08T09:14:17.638Z,37.72
2022-08-08T09:16:47.794Z,37.12
2022-08-08T09:21:53.813Z,37.27
2022-08-08T09:22:07.740Z,36.44
2022-08-08T09:24:36.849Z,36.89
2022-08-08T09:27:14.900Z,36.49
2022-08-08T09:29:56.857Z,36.50
2022-08-08T09:32:37.041Z,36.10
2022-08-08T09:35:08.674Z,36.29
2022-08-08T09:38:01.132Z,36.16
2022-08-08T09:44:06.397Z,35.47
2022-08-08T09:46:45.103Z,35.52
2022-08-08T09:49:42.865Z,35.38
2022-08-08T09:52:55.889Z,35.35
2022-08-08T09:55:07.168Z,35.09
2022-08-08T09:57:46.122Z,35.14
2022-08-08T10:00:53.300Z,34.68
2022-08-08T10:03:07.190Z,34.27
2022-08-08T10:05:36.980Z,34.63
2022-08-08T10:08:09.826Z,33.74
2022-08-08T10:10:41.434Z,32.63
2022-08-08T10:13:25.905Z,33.52
2022-08-08T10:15:59.373Z,34.22
2022-08-08T10:18:30.782Z,34.30
2022-08-08T10:21:22.682Z,33.36
2022-08-08T10:23:58.829Z,32.78
2022-08-08T10:26:57.393Z,32.68
2022-08-08T10:29:23.641Z,31.86
2022-08-08T10:32:15.965Z,32.18
2022-08-08T10:34:57.001Z,31.41
2022-08-08T10:37:31.041Z,31.74
2022-08-08T10:40:12.656Z,31.59
2022-08-08T10:42:46.000Z,31.40
2022-08-08T10:45:16.744Z,31.22
2022-08-08T10:47:55.307Z,31.08
2022-08-08T10:50:32.169Z,32.22
2022-08-08T10:53:07.789Z,32.03
2022-08-08T10:55:45.743Z,31.29
2022-08-08T10:58:15.619Z,31.99
2022-08-08T11:00:53.480Z,31.51
2022-08-08T11:04:00.850Z,31.40
2022-08-08T11:06:34.572Z,31.00
2022-08-08T11:09:15.347Z,30.88
2022-08-08T11:12:04.686Z,30.88
2022-08-08T11:14:50.247Z,30.47
2022-08-08T11:17:58.934Z,30.26
2022-08-08T11:20:14.656Z,30.89
2022-08-08T11:22:50.993Z,31.33
2022-08-08T11:25:53.144Z,30.39
2022-08-08T11:28:16.921Z,30.81
2022-08-08T11:30:50.614Z,31.06
2022-08-08T11:33:52.058Z,30.26
2022-08-08T11:36:18.633Z,30.86
2022-08-08T11:38:54.690Z,30.46
2022-08-08T11:41:24.845Z,30.44
2022-08-08T11:43:57.940Z,30.07
2022-08-08T11:46:31.332Z,30.21
2022-08-08T11:49:01.226Z,29.28
2022-08-08T11:51:40.377Z,29.76
2022-08-08T11:54:32.452Z,29.50
2022-08-08T11:57:16.696Z,29.44
2022-08-08T12:00:02.046Z,29.36
2022-08-08T12:02:45.655Z,29.12
2022-08-08T12:05:14.178Z,28.73
2022-08-08T12:07:49.649Z,27.85
2022-08-08T12:10:21.487Z,27.68
2022-08-08T12:12:51.790Z,27.94
2022-08-08T12:15:42.927Z,27.64
2022-08-08T12:18:18.131Z,27.51
2022-08-08T12:20:50.617Z,28.53
2022-08-08T12:23:42.658Z,27.57
2022-08-08T12:26:28.214Z,28.13
2022-08-08T12:29:21.438Z,27.98
2022-08-08T12:32:02.677Z,27.96
2022-08-08T12:34:40.626Z,27.86
2022-08-08T12:37:11.342Z,27.50
2022-08-08T12:40:01.105Z,28.49
2022-08-08T12:42:33.837Z,27.40
2022-08-08T12:45:53.487Z,27.75
2022-08-08T12:48:09.624Z,27.36
2022-08-08T12:50:49.312Z,27.41
2022-08-08T12:53:30.233Z,27.47
2022-08-08T12:56:18.024Z,27.55
2022-08-08T12:58:49.242Z,27.34
2022-08-08T13:01:28.830Z,26.42
2022-08-08T13:04:18.565Z,26.10
2022-08-08T13:06:55.611Z,27.01
2022-08-08T13:09:43.284Z,27.13
2022-08-08T13:12:32.525Z,26.99
2022-08-08T13:15:04.930Z,26.97
2022-08-08T13:17:54.190Z,26.67
2022-08-08T13:20:24.126Z,26.87
2022-08-08T13:23:31.100Z,26.24
2022-08-08T13:25:50.945Z,26.42
2022-08-08T13:28:32.985Z,26.33
2022-08-08T13:31:03.988Z,26.39
2022-08-08T13:33:41.968Z,26.27
2022-08-08T13:36:11.926Z,25.97
2022-08-08T13:38:41.632Z,26.06
2022-08-08T13:41:16.008Z,25.71
2022-08-08T13:43:47.748Z,25.84
2022-08-08T13:46:27.037Z,25.76
2022-08-08T13:50:33.225Z,25.82
2022-08-08T13:52:01.125Z,25.54
2022-08-08T13:54:32.165Z,25.05
2022-08-08T13:57:02.019Z,22.29
2022-08-08T13:59:33.354Z,20.26
2022-08-08T14:02:07.475Z,19.22
2022-08-08T14:04:53.035Z,17.50
2022-08-08T14:07:29.888Z,17.14
2022-08-08T14:10:05.289Z,17.00
2022-08-08T14:12:45.024Z,16.14
2022-08-08T14:15:31.653Z,16.22
2022-08-08T14:18:35.906Z,15.42
2022-08-08T14:21:02.838Z,15.19
2022-08-08T14:24:07.860Z,15.73
2022-08-08T14:26:29.738Z,16.19
2022-08-08T14:29:06.140Z,15.79
2022-08-08T14:32:09.248Z,16.44
2022-08-08T14:34:38.394Z,15.87
2022-08-08T14:37:09.055Z,15.55
2022-08-08T14:39:47.939Z,15.21
2022-08-08T14:42:17.492Z,16.10
2022-08-08T14:44:55.345Z,14.81
2022-08-08T14:47:25.185Z,13.40
2022-08-08T14:50:10.723Z,14.81
2022-08-08T14:52:46.905Z,14.58
2022-08-08T14:55:22.519Z,14.73
2022-08-08T14:58:11.327Z,14.98
2022-08-08T15:00:40.346Z,15.82
2022-08-08T15:03:14.874Z,14.57
2022-08-08T15:05:53.983Z,13.66
2022-08-08T15:08:35.411Z,14.97
2022-08-08T15:11:10.434Z,15.19
2022-08-08T15:14:01.935Z,15.79
2022-08-08T15:16:34.490Z,15.77
2022-08-08T15:19:05.362Z,15.03
2022-08-08T15:21:37.699Z,13.75
2022-08-08T15:24:12.677Z,14.84
2022-08-08T15:26:44.102Z,14.26
2022-08-08T15:29:22.482Z,13.64
2022-08-08T15:32:18.113Z,14.52
2022-08-08T15:34:42.014Z,14.91
2022-08-08T15:37:10.169Z,15.54
2022-08-08T15:39:41.048Z,15.37
2022-08-08T15:42:17.713Z,14.63
2022-08-08T15:44:58.256Z,14.54
2022-08-08T15:47:26.233Z,14.15
2022-08-08T15:49:55.772Z,14.43
2022-08-08T15:52:25.029Z,14.75
2022-08-08T15:54:54.606Z,16.33
2022-08-08T15:57:23.348Z,19.72
2022-08-08T16:00:17.866Z,20.71
2022-08-08T16:02:50.794Z,21.88
2022-08-08T16:05:23.647Z,22.57
2022-08-08T16:07:54.589Z,23.48
2022-08-08T16:13:27.330Z,24.27
2022-08-08T16:13:28.299Z,23.65
2022-08-08T16:16:09.212Z,24.58
2022-08-08T16:18:53.439Z,24.87
2022-08-08T16:21:29.496Z,24.29
2022-08-08T16:23:58.331Z,24.83
2022-08-08T16:26:34.702Z,24.76
2022-08-08T16:29:09.077Z,25.33
2022-08-08T16:31:41.915Z,24.90
2022-08-08T16:34:12.707Z,25.77
2022-08-08T16:36:43.524Z,25.43
2022-08-08T16:39:28.070Z,25.53
2022-08-08T16:42:01.307Z,25.59
2022-08-08T16:44:33.624Z,25.33
2022-08-08T16:47:41.426Z,25.45
2022-08-08T16:50:15.070Z,25.86
2022-08-08T16:55:02.594Z,25.92
2022-08-08T16:55:55.232Z,26.07
2022-08-08T16:58:29.368Z,26.61
2022-08-08T17:01:05.489Z,26.83
2022-08-08T17:03:58.392Z,26.38
2022-08-08T17:06:37.448Z,26.65
2022-08-08T17:09:14.749Z,26.38
2022-08-08T17:11:48.542Z,26.63
2022-08-08T17:14:18.756Z,26.59
2022-08-08T17:16:57.408Z,26.73
2022-08-08T17:19:27.495Z,26.86
2022-08-08T17:21:57.843Z,26.90
2022-08-08T17:24:32.505Z,27.38
2022-08-08T17:27:02.931Z,27.64
2022-08-08T17:29:36.607Z,27.59
2022-08-08T17:32:11.976Z,27.32
2022-08-08T17:35:00.050Z,27.56
2022-08-08T17:37:28.098Z,27.60
2022-08-08T17:40:10.838Z,28.03
2022-08-08T17:42:41.559Z,27.55
2022-08-08T17:45:23.311Z,27.80
2022-08-08T17:47:54.224Z,28.17
2022-08-08T17:50:23.691Z,28.02
2022-08-08T17:52:52.386Z,28.03
2022-08-08T17:56:05.261Z,28.17
2022-08-08T17:58:11.755Z,28.21
2022-08-08T18:00:41.452Z,28.71
2022-08-08T18:03:13.739Z,29.00
2022-08-08T18:05:47.938Z,28.70
2022-08-08T18:08:25.144Z,29.06
2022-08-08T18:11:11.738Z,29.49
2022-08-08T18:13:42.909Z,29.32
2022-08-08T18:16:11.667Z,29.43
2022-08-08T18:18:45.485Z,28.85
2022-08-08T18:21:34.727Z,29.46
2022-08-08T18:24:17.690Z,29.56
2022-08-08T18:26:56.617Z,29.87
2022-08-08T18:29:33.317Z,30.41
2022-08-08T18:32:05.576Z,30.89
2022-08-08T18:34:36.282Z,31.02
2022-08-08T18:37:08.604Z,31.17
2022-08-08T18:39:38.457Z,31.38
2022-08-08T18:42:15.952Z,31.61
2022-08-08T18:44:55.014Z,31.40
2022-08-08T18:47:26.377Z,31.73
2022-08-08T18:49:58.704Z,32.68
2022-08-08T18:52:30.109Z,32.40
2022-08-08T18:55:00.463Z,32.15
2022-08-08T18:57:45.205Z,32.69
2022-08-08T19:00:20.541Z,32.76
2022-08-08T19:02:55.713Z,33.05
2022-08-08T19:05:34.868Z,32.76
2022-08-08T19:08:23.935Z,33.24
2022-08-08T19:10:54.377Z,33.56
2022-08-08T19:13:25.312Z,33.88
2022-08-08T19:16:09.216Z,33.54
2022-08-08T19:18:51.304Z,33.76
2022-08-08T19:21:30.763Z,33.98
2022-08-08T19:24:05.616Z,34.07
2022-08-08T19:26:34.866Z,33.98
2022-08-08T19:29:04.762Z,34.18
2022-08-08T19:31:34.980Z,34.63
2022-08-08T19:34:35.742Z,34.58
2022-08-08T19:36:55.418Z,34.83
2022-08-08T19:39:35.516Z,34.65
2022-08-08T19:42:04.364Z,34.99
2022-08-08T19:44:45.951Z,34.83
2022-08-08T19:47:14.568Z,35.21
2022-08-08T19:49:43.595Z,35.20
2022-08-08T19:52:35.097Z,35.46
2022-08-08T19:55:08.731Z,35.53
2022-08-08T19:57:38.008Z,35.48
2022-08-08T20:00:29.321Z,35.85
2022-08-08T20:02:59.099Z,35.95
2022-08-08T20:06:15.434Z,35.79
2022-08-08T20:08:29.967Z,35.76
2022-08-08T20:10:59.961Z,35.86
2022-08-08T20:14:34.653Z,36.34
2022-08-08T20:16:18.294Z,36.51
2022-08-08T20:18:53.189Z,36.88
2022-08-08T20:21:25.434Z,37.01
2022-08-08T20:23:58.058Z,36.94
2022-08-08T20:26:30.077Z,37.21
2022-08-08T20:29:01.338Z,37.35
2022-08-08T20:32:02.677Z,37.56
2022-08-08T20:34:29.794Z,37.37
2022-08-08T20:37:00.650Z,37.44
2022-08-08T20:39:39.575Z,37.62
2022-08-08T20:42:17.335Z,37.96
2022-08-08T20:44:45.288Z,37.96
2022-08-08T20:47:23.051Z,38.13
2022-08-08T20:49:54.411Z,37.74
2022-08-08T20:52:25.641Z,38.39
2022-08-08T20:54:53.566Z,37.82
2022-08-08T20:57:21.922Z,38.19
2022-08-08T20:59:50.012Z,38.11
2022-08-08T21:02:25.336Z,38.45
2022-08-08T21:04:57.357Z,38.42
2022-08-08T21:07:47.311Z,38.27
2022-08-08T21:10:17.257Z,38.46
2022-08-08T21:12:48.423Z,38.46
2022-08-08T21:16:05.685Z,38.80
2022-08-08T21:18:10.292Z,38.75
2022-08-08T21:20:39.868Z,38.50
2022-08-08T21:23:17.902Z,39.35
2022-08-08T21:25:48.867Z,39.74
2022-08-08T21:28:33.419Z,39.27
2022-08-08T21:31:06.015Z,39.13
2022-08-08T21:33:53.563Z,39.55
2022-08-08T21:36:28.539Z,39.29
2022-08-08T21:38:58.003Z,39.74
2022-08-08T21:41:38.449Z,40.31
2022-08-08T21:44:14.956Z,40.31
2022-08-08T21:48:06.099Z,40.62
2022-08-08T21:49:34.765Z,40.83
2022-08-08T21:54:31.738Z,40.81
2022-08-08T21:55:02.258Z,41.19
2022-08-08T21:57:42.560Z,41.62
2022-08-08T22:00:14.659Z,41.37
2022-08-08T22:02:43.146Z,41.54
2022-08-08T22:05:14.864Z,41.69
2022-08-08T22:07:48.350Z,42.33
2022-08-08T22:10:28.652Z,42.32
2022-08-08T22:13:18.826Z,42.52
2022-08-08T22:15:59.088Z,42.38
2022-08-08T22:18:30.959Z,42.68
2022-08-08T22:21:14.301Z,42.92
2022-08-08T22:23:51.621Z,43.08
2022-08-08T22:26:29.542Z,43.45
2022-08-08T22:29:04.026Z,43.97
2022-08-08T22:31:43.912Z,44.12
2022-08-08T22:34:27.124Z,44.19
2022-08-08T22:36:56.425Z,44.66
2022-08-08T22:39:39.532Z,44.77
2022-08-08T22:42:12.210Z,44.44
2022-08-08T22:44:40.025Z,44.92
2022-08-08T22:47:17.609Z,45.26
2022-08-08T22:49:54.191Z,45.05
2022-08-08T22:52:33.515Z,45.33
2022-08-08T22:55:05.559Z,45.24
2022-08-08T22:57:44.191Z,45.30
2022-08-08T23:00:18.483Z,45.58
2022-08-08T23:02:50.227Z,45.95
2022-08-08T23:05:21.442Z,45.66
2022-08-08T23:07:58.026Z,45.88
2022-08-08T23:10:26.959Z,45.91
2022-08-08T23:12:56.191Z,46.10
2022-08-08T23:16:38.799Z,46.24
2022-08-08T23:18:13.086Z,45.97
2022-08-08T23:20:43.532Z,46.63
2022-08-08T23:23:13.507Z,46.85
2022-08-08T23:25:48.381Z,46.78
2022-08-08T23:28:18.955Z,46.49
2022-08-08T23:30:48.736Z,46.49
2022-08-08T23:33:18.981Z,46.77
2022-08-08T23:36:07.332Z,46.86
2022-08-08T23:38:44.049Z,47.52
2022-08-08T23:41:22.891Z,47.56
2022-08-08T23:43:56.859Z,47.69
2022-08-08T23:49:03.737Z,47.67
2022-08-08T23:49:18.224Z,47.23
2022-08-08T23:52:05.933Z,47.67
2022-08-08T23:54:41.430Z,47.69
2022-08-08T23:57:25.206Z,48.14
